CW6020 Teulada ES current weather conditions

sailwx.info

Wind from 314 at 5 knots gusting 8

Air temperature 16.1° C
Dewpoint 4.5° C

Last reported at 2020-Jan-17 18:56 UTC.
Time now 2020-Jan-17 19:43 UTC

Location: N 38°44' E 000°06'.
View on Google Maps.

See reports from other nearby stations

  
Tides and Currents Weather Stations Pressure Air Temp Water Temp Dewpoint Dewpoint Depression Visibility Wind Speed Wind Dir Waves Ship Positions
date/time (UTC)wind fromknots sea level pressurealtimeterstation pressurevisibilityair tempwater tempwave heightnotes
2020-Jan-17 18:56 314 5 gusting 8 16.1
2020-Jan-17 18:45 303 5 gusting 9 15.6
2020-Jan-17 18:35 307 4 gusting 6 15.6
2020-Jan-17 18:25 068 0 gusting 3 16.1
2020-Jan-17 18:15 315 4 gusting 8 16.1
2020-Jan-17 18:06 311 4 gusting 8 16.1
2020-Jan-17 17:56 346 1 gusting 2 15.6
2020-Jan-17 17:45 267 2 gusting 5 16.1
2020-Jan-17 17:35 045 1 gusting 3 16.1
2020-Jan-17 17:25 041 0 gusting 2 16.1
2020-Jan-17 17:15 072 0 gusting 3 16.1
2020-Jan-17 17:06 064 1 gusting 3 16.1
2020-Jan-17 16:56 340 2 gusting 5 16.1
2020-Jan-17 16:45 335 4 gusting 7 16.1
2020-Jan-17 16:35 035 2 gusting 5 16.1
2020-Jan-17 16:25 086 1 gusting 6 16.1
2020-Jan-17 16:15 344 1 gusting 5 16.7
2020-Jan-17 16:06 311 3 gusting 5 16.7
2020-Jan-17 15:56 009 3 gusting 8 16.7
2020-Jan-17 15:45 355 3 gusting 8 16.7
2020-Jan-17 15:35 003 4 gusting 12 16.7
2020-Jan-17 15:25 355 3 gusting 11 16.7
2020-Jan-17 15:15 358 6 gusting 13 17.2
2020-Jan-17 15:06 319 2 gusting 6 17.2
2020-Jan-17 14:56 307 5 gusting 9 17.2
2020-Jan-17 14:45 334 3 gusting 7 17.8
2020-Jan-17 14:35 350 4 gusting 8 17.8
2020-Jan-17 14:25 313 6 gusting 13 17.8
2020-Jan-17 14:15 008 5 gusting 9 17.8
2020-Jan-17 14:05 355 10 gusting 18 17.8
2020-Jan-17 13:56 275 6 gusting 9 18.9
2020-Jan-17 13:45 282 6 gusting 13 18.9
2020-Jan-17 13:35 305 8 gusting 14 18.9
2020-Jan-17 13:25 304 6 gusting 12 18.9
2020-Jan-17 13:15 278 4 gusting 12 18.3
2020-Jan-17 13:05 300 5 gusting 8 18.9
2020-Jan-17 12:56 248 5 gusting 12 18.3
2020-Jan-17 12:45 294 4 gusting 9 18.3
2020-Jan-17 12:35 153 1 gusting 5 18.3
2020-Jan-17 12:25 343 2 gusting 7 18.3
2020-Jan-17 12:15 254 3 gusting 7 18.3
2020-Jan-17 12:05 282 6 gusting 9 18.3
2020-Jan-17 11:56 325 5 gusting 9 18.3
2020-Jan-17 11:45 326 4 gusting 8 18.3
2020-Jan-17 11:35 275 5 gusting 8 17.8
2020-Jan-17 11:25 317 2 gusting 13 17.8
2020-Jan-17 11:15 309 5 gusting 13 17.8
2020-Jan-17 11:05 279 4 gusting 6 17.2
2020-Jan-17 10:56 327 5 gusting 11 17.2
2020-Jan-17 10:45 313 3 gusting 7 17.2
2020-Jan-17 10:35 294 3 gusting 8 17.2
2020-Jan-17 10:25 186 3 gusting 6 17.2
2020-Jan-17 10:15 275 5 gusting 12 17.2
2020-Jan-17 10:05 260 4 gusting 6 16.7
2020-Jan-17 09:56 147 1 gusting 5 16.7
2020-Jan-17 09:46 252 3 gusting 8 16.7
2020-Jan-17 09:35 136 0 gusting 1 16.1
2020-Jan-17 09:25 026 1 gusting 6 16.1
2020-Jan-17 09:15 012 2 gusting 5 16.1
2020-Jan-17 09:05 358 1 gusting 6 16.1
2020-Jan-17 08:56 248 1 gusting 5 16.1
2020-Jan-17 08:46 271 4 gusting 7 16.1
2020-Jan-17 08:35 315 5 gusting 7 15.6
2020-Jan-17 08:25 347 4 gusting 7 15.6
2020-Jan-17 08:15 312 4 gusting 8 15.6
2020-Jan-17 08:05 298 3 gusting 7 15.0
2020-Jan-17 07:56 163 1 gusting 3 15.0
2020-Jan-17 07:46 356 2 gusting 6 13.3
2020-Jan-17 07:35 119 0 gusting 2 9.4
2020-Jan-17 07:25 125 1 gusting 2 10.0
2020-Jan-17 07:15 128 1 gusting 2 9.4
2020-Jan-17 07:05 113 11.1
2020-Jan-17 06:56 102 10.0
2020-Jan-17 06:46 116 0 gusting 0 9.4
2020-Jan-17 06:35 121 0 gusting 1 10.0
2020-Jan-17 06:25 128 1 gusting 2 11.1
2020-Jan-17 06:15 066 1 gusting 3 12.8
2020-Jan-17 06:05 120 1 gusting 3 13.3
2020-Jan-17 05:56 119 2 gusting 5 13.3
2020-Jan-17 05:46 078 2 gusting 5 14.4
2020-Jan-17 05:35 283 5 gusting 13 15.0
2020-Jan-17 05:25 320 6 gusting 9 14.4
2020-Jan-17 05:15 164 1 gusting 6 13.9
2020-Jan-17 05:05 291 6 gusting 13 14.4
2020-Jan-17 04:56 150 1 gusting 3 10.6
2020-Jan-17 04:46 099 0 gusting 1 7.2
2020-Jan-17 04:35 127 0 gusting 2 8.3
2020-Jan-17 04:25 115 0 gusting 1 7.2
2020-Jan-17 04:15 107 8.3
2020-Jan-17 04:05 118 0 gusting 2 8.3
2020-Jan-17 03:56 121 0 gusting 1 9.4
2020-Jan-17 03:46 098 9.4
2020-Jan-17 03:35 117 0 gusting 2 8.9
2020-Jan-17 03:25 122 0 gusting 1 9.4
2020-Jan-17 03:15 123 0 gusting 1 8.9
2020-Jan-17 03:05 119 0 gusting 1 9.4
2020-Jan-17 02:55 114 9.4
2020-Jan-17 02:46 127 1 gusting 2 7.8
2020-Jan-17 02:35 119 1 gusting 2 6.7
2020-Jan-17 02:25 128 0 gusting 2 5.0
2020-Jan-17 02:15 110 6.7
2020-Jan-17 02:05 6.1
2020-Jan-17 01:55 118 5.6
2020-Jan-17 01:46 119 5.6
2020-Jan-17 01:35 124 6.1
2020-Jan-17 01:25 125 5.6
2020-Jan-17 01:15 126 0 gusting 1 4.4
2020-Jan-17 01:05 115 0 gusting 0 6.7
2020-Jan-17 00:55 120 6.1
2020-Jan-17 00:46 120 6.1
2020-Jan-17 00:35 121 0 gusting 0 6.1
2020-Jan-17 00:25 122 0 gusting 0 6.1
2020-Jan-17 00:15 122 6.1
2020-Jan-17 00:05 122 0 gusting 1 6.7
2020-Jan-16 23:55 116 0 gusting 1 6.7
2020-Jan-16 23:46 119 0 gusting 1 6.1
2020-Jan-16 23:35 129 0 gusting 0 6.1
2020-Jan-16 23:25 131 0 gusting 1 6.1
2020-Jan-16 23:15 119 0 gusting 1 6.1
2020-Jan-16 23:05 127 0 gusting 1 6.7
2020-Jan-16 22:55 123 0 gusting 0 6.1
2020-Jan-16 22:46 127 0 gusting 1 6.7
2020-Jan-16 22:36 127 1 gusting 1 6.7
2020-Jan-16 22:25 124 1 gusting 2 6.7
2020-Jan-16 22:15 127 0 gusting 1 6.7
2020-Jan-16 22:05 116 0 gusting 1 7.2
2020-Jan-16 21:55 120 0 gusting 1 7.2
2020-Jan-16 21:46 125 0 gusting 1 6.7
2020-Jan-16 21:35 121 0 gusting 1 6.7
2020-Jan-16 21:26 124 1 gusting 2 6.7
2020-Jan-16 21:16 119 0 gusting 1 7.2
2020-Jan-16 21:05 127 0 gusting 1 6.7
2020-Jan-16 20:55 123 0 gusting 1 7.2
2020-Jan-16 20:45 119 0 gusting 0 7.2
2020-Jan-16 20:36 125 7.2
2020-Jan-16 20:25 125 0 gusting 0 7.8
2020-Jan-16 20:15 125 0 gusting 0 7.8
2020-Jan-16 20:05 8.9
2020-Jan-16 19:55 8.3
2020-Jan-16 19:45 122 8.3
2020-Jan-16 19:36 123 8.3
2020-Jan-16 19:25 8.3
2020-Jan-16 19:15 123 0 gusting 0 8.3
2020-Jan-16 19:05 122 8.9
2020-Jan-16 18:55 122 8.9
2020-Jan-16 18:45 123 0 gusting 1 8.9
2020-Jan-16 18:36 9.4
2020-Jan-16 18:26 127 0 gusting 0 10.0
2020-Jan-16 18:15 124 10.6
2020-Jan-16 18:05 100 10.6
2020-Jan-16 17:55 090 10.6
2020-Jan-16 17:45 111 11.1
2020-Jan-16 17:36 11.1
2020-Jan-16 17:26 11.1
2020-Jan-16 17:15 11.7
2020-Jan-16 17:05 128 11.7
2020-Jan-16 16:55 130 0 gusting 1 12.8
2020-Jan-16 16:45 125 12.8
2020-Jan-16 16:36 143 1 gusting 2 13.3
2020-Jan-16 16:26 143 1 gusting 2 13.9
2020-Jan-16 16:15 138 0 gusting 2 14.4
2020-Jan-16 16:05 159 0 gusting 1 14.4
2020-Jan-16 15:55 140 1 gusting 3 15.0
2020-Jan-16 15:45 145 2 gusting 3 15.0
2020-Jan-16 15:36 155 2 gusting 3 15.6
2020-Jan-16 15:26 163 2 gusting 3 15.6
2020-Jan-16 15:15 157 2 gusting 3 15.6
2020-Jan-16 15:05 147 1 gusting 3 15.6
2020-Jan-16 14:55 155 2 gusting 5 16.1
2020-Jan-16 14:45 160 2 gusting 5 16.1
2020-Jan-16 14:36 153 2 gusting 3 16.1
2020-Jan-16 14:26 158 2 gusting 3 16.1
2020-Jan-16 14:15 146 1 gusting 5 16.1
2020-Jan-16 14:05 161 3 gusting 6 15.6
2020-Jan-16 13:55 162 3 gusting 6 16.1
2020-Jan-16 13:45 157 1 gusting 5 16.1
2020-Jan-16 13:36 147 2 gusting 5 16.1
2020-Jan-16 13:26 146 2 gusting 5 15.6
2020-Jan-16 13:15 152 3 gusting 5 16.1
2020-Jan-16 13:05 155 2 gusting 5 16.1
2020-Jan-16 12:55 162 2 gusting 5 16.1
2020-Jan-16 12:45 157 3 gusting 5 15.6
2020-Jan-16 12:36 151 2 gusting 6 16.1
2020-Jan-16 12:26 149 3 gusting 5 16.1
2020-Jan-16 12:15 147 2 gusting 5 15.6
2020-Jan-16 12:05 158 2 gusting 5 16.1
2020-Jan-16 11:55 137 1 gusting 5 16.1
2020-Jan-16 11:45 153 2 gusting 5 16.1
2020-Jan-16 11:35 137 0 gusting 1 15.6
2020-Jan-16 11:26 145 0 gusting 1 15.6
2020-Jan-16 11:15 119 0 gusting 2 15.6
2020-Jan-16 11:05 149 1 gusting 2 15.6
2020-Jan-16 10:55 133 0 gusting 1 15.6
2020-Jan-16 10:45 130 1 gusting 2 15.6
2020-Jan-16 10:35 128 0 gusting 1 15.6
2020-Jan-16 10:26 133 0 gusting 1 15.0
2020-Jan-16 10:15 129 0 gusting 1 15.0
2020-Jan-16 10:05 128 0 gusting 1 15.0
2020-Jan-16 09:55 085 13.9
2020-Jan-16 09:45 103 13.9
2020-Jan-16 09:35 105 14.4
2020-Jan-16 09:26 13.3
2020-Jan-16 09:15 11.7
2020-Jan-16 09:05 130 0 gusting 1 10.6
2020-Jan-16 08:55 121 10.0
2020-Jan-16 08:45 128 0 gusting 1 9.4
2020-Jan-16 08:35 121 0 gusting 1 8.9
2020-Jan-16 08:26 121 0 gusting 1 8.9
2020-Jan-16 08:15 118 8.3
2020-Jan-16 08:05 127 1 gusting 2 6.7
2020-Jan-16 07:55 114 6.7
2020-Jan-16 07:45 119 0 gusting 1 6.1
2020-Jan-16 07:35 116 0 gusting 0 6.1
2020-Jan-16 07:26 116 6.1
2020-Jan-16 07:16 121 0 gusting 1 6.1
2020-Jan-16 07:05 128 0 gusting 1 6.1
2020-Jan-16 06:55 125 0 gusting 1 6.1
2020-Jan-16 06:45 7.2
2020-Jan-16 06:35 107 6.7
2020-Jan-16 06:26 6.7
2020-Jan-16 06:16 125 0 gusting 1 6.7
2020-Jan-16 06:05 125 6.7
2020-Jan-16 05:55 126 0 gusting 0 7.2
2020-Jan-16 05:45 121 7.2
2020-Jan-16 05:35 126 0 gusting 1 7.8
2020-Jan-16 05:26 116 8.9
2020-Jan-16 05:16 115 0 gusting 0 8.3
2020-Jan-16 05:05 118 0 gusting 1 8.9
2020-Jan-16 04:55 121 0 gusting 1 9.4
2020-Jan-16 04:45 116 0 gusting 1 9.4
2020-Jan-16 04:35 121 0 gusting 1 10.6
2020-Jan-16 04:26 120 10.0
2020-Jan-16 04:16 119 0 gusting 1 10.0
2020-Jan-16 04:05 123 1 gusting 1 11.1
2020-Jan-16 03:55 126 0 gusting 1 11.7
2020-Jan-16 03:45 115 0 gusting 1 13.3
2020-Jan-16 03:35 147 0 gusting 3 14.4
2020-Jan-16 03:26 355 2 gusting 5 15.6
2020-Jan-16 03:16 041 1 gusting 5 15.0
2020-Jan-16 03:05 018 2 gusting 6 15.6
2020-Jan-16 02:55 330 3 gusting 6 15.6
2020-Jan-16 02:45 348 3 gusting 6 15.0
2020-Jan-16 02:35 337 3 gusting 5 15.0
2020-Jan-16 02:26 349 3 gusting 5 15.0
2020-Jan-16 02:16 358 3 gusting 5 15.0
2020-Jan-16 02:05 041 2 gusting 3 15.0
2020-Jan-16 01:55 004 2 gusting 3 15.0
2020-Jan-16 01:45 302 3 gusting 5 15.0
2020-Jan-16 01:35 297 3 gusting 6 15.0
2020-Jan-16 01:26 344 2 gusting 5 15.0
2020-Jan-16 01:16 297 4 gusting 6 15.0
2020-Jan-16 01:05 350 2 gusting 6 14.4
2020-Jan-16 00:55 072 0 gusting 1 12.8
2020-Jan-16 00:45 084 0 gusting 1 12.2
2020-Jan-16 00:35 097 8.9
2020-Jan-16 00:26 123 0 gusting 1 8.9
2020-Jan-16 00:16 120 1 gusting 2 8.9
2020-Jan-16 00:05 121 1 gusting 2 8.3
2020-Jan-15 23:55 119 1 gusting 2 7.2
2020-Jan-15 23:45 122 0 gusting 1 7.2
2020-Jan-15 23:35 123 0 gusting 1 7.2
2020-Jan-15 23:25 130 1 gusting 1 7.2
2020-Jan-15 23:16 125 1 gusting 2 7.8
2020-Jan-15 23:05 122 1 gusting 1 7.8
2020-Jan-15 22:55 122 0 gusting 1 7.8
2020-Jan-15 22:45 118 0 gusting 1 7.2
2020-Jan-15 22:35 122 0 gusting 0 7.2
2020-Jan-15 22:26 123 0 gusting 1 6.7
2020-Jan-15 22:15 120 0 gusting 1 7.2
2020-Jan-15 22:05 125 1 gusting 1 7.2
2020-Jan-15 21:55 123 0 gusting 1 6.7
2020-Jan-15 21:45 124 0 gusting 1 7.2
2020-Jan-15 21:35 121 0 gusting 0 7.2
2020-Jan-15 21:25 120 0 gusting 0 7.2
2020-Jan-15 21:16 117 0 gusting 0 7.2
2020-Jan-15 21:05 132 0 gusting 1 7.2
2020-Jan-15 20:55 124 0 gusting 1 7.8
2020-Jan-15 20:45 120 0 gusting 1 7.2
2020-Jan-15 20:35 120 0 gusting 1 7.2
2020-Jan-15 20:25 133 0 gusting 1 6.7
2020-Jan-15 20:16 121 0 gusting 1 7.8
2020-Jan-15 20:05 7.8
2020-Jan-15 19:55 123 7.8
2020-Jan-15 19:45 120 7.8
2020-Jan-15 19:35 131 1 gusting 1 8.3
2020-Jan-15 19:25 8.3
2020-Jan-15 19:16 120 8.9
2020-Jan-15 19:06 116 0 gusting 2 8.9